Time;durP1;ratioP1;P1;durP2;ratioP2;P2;SDS_P1;SDS_P2;PMS_P1;PMS_P2;Temp;Humidity;BMP_temperature;BMP_pressure;BME280_temperature;BME280_humidity;BME280_pressure;Samples;Min_cycle;Max_cycle;Signal;HPM_P1;HPM_P2
2021/12/02 00:01:17;;;;;;;1.67;0.60;;;10.20;88.10;;;;;;5095912;28;20065;-63
2021/12/02 00:03:43;;;;;;;1.20;0.70;;;10.20;88.00;;;;;;5095156;28;20060;-63
2021/12/02 00:06:13;;;;;;;2.72;0.80;;;10.20;87.70;;;;;;5095857;28;20115;-63
2021/12/02 00:08:40;;;;;;;0.88;0.60;;;10.20;87.70;;;;;;5095122;28;20031;-64
2021/12/02 00:11:06;;;;;;;0.70;0.60;;;10.20;87.50;;;;;;5095831;28;20044;-63
2021/12/02 00:13:44;;;;;;;1.00;0.80;;;10.20;87.10;;;;;;5095281;28;20055;-63
2021/12/02 00:21:03;;;;;;;1.38;0.85;;;10.20;86.80;;;;;;5094909;28;20086;-63
2021/12/02 00:21:27;;;;;;;1.05;0.80;;;10.20;86.30;;;;;;5094999;28;20020;-63
2021/12/02 00:24:07;;;;;;;2.00;0.70;;;10.20;85.90;;;;;;5094930;28;20031;-63
2021/12/02 00:26:36;;;;;;;0.85;0.65;;;10.20;85.90;;;;;;5094905;28;20039;-63
2021/12/02 00:29:04;;;;;;;0.90;0.70;;;10.20;85.10;;;;;;5095401;28;20020;-63
2021/12/02 00:31:33;;;;;;;1.67;0.77;;;10.20;85.10;;;;;;5095331;28;20024;-63
2021/12/02 00:34:02;;;;;;;0.73;0.70;;;10.20;85.00;;;;;;5095278;28;20028;-63
2021/12/02 00:36:29;;;;;;;1.05;0.80;;;10.30;84.80;;;;;;5094942;28;20464;-63
2021/12/02 00:38:56;;;;;;;0.98;0.65;;;10.30;84.20;;;;;;5094629;28;20103;-63
2021/12/02 00:41:24;;;;;;;1.40;0.85;;;10.30;84.10;;;;;;5095231;28;20024;-63
2021/12/02 00:43:52;;;;;;;1.05;0.77;;;10.30;84.00;;;;;;5094471;28;20032;-63
2021/12/02 00:46:20;;;;;;;0.55;0.55;;;10.30;83.90;;;;;;5094646;28;20322;-64
2021/12/02 00:48:47;;;;;;;1.30;0.65;;;10.30;82.90;;;;;;5094828;28;20464;-63
2021/12/02 00:51:14;;;;;;;3.17;0.88;;;10.30;83.00;;;;;;5094873;28;20024;-63
2021/12/02 00:53:45;;;;;;;1.17;0.75;;;10.30;82.90;;;;;;5093988;28;20050;-63
2021/12/02 00:56:16;;;;;;;0.77;0.68;;;10.30;82.90;;;;;;5095095;28;20137;-63
2021/12/02 00:58:46;;;;;;;0.80;0.70;;;10.30;82.70;;;;;;5094295;28;20036;-61
2021/12/02 01:01:14;;;;;;;1.30;0.80;;;10.30;82.30;;;;;;5094698;28;20483;-62
2021/12/02 01:03:41;;;;;;;0.90;0.70;;;10.30;82.00;;;;;;5093799;28;20388;-63
2021/12/02 01:06:07;;;;;;;1.52;0.80;;;10.30;81.70;;;;;;5093521;28;20036;-63
2021/12/02 01:08:34;;;;;;;0.82;0.70;;;10.30;81.40;;;;;;5094212;28;20547;-63
2021/12/02 01:11:02;;;;;;;3.10;0.90;;;10.30;81.10;;;;;;5094246;28;20016;-63
2021/12/02 01:13:28;;;;;;;0.88;0.70;;;10.30;80.90;;;;;;5094448;28;20162;-63
2021/12/02 01:15:54;;;;;;;0.68;0.65;;;10.30;81.00;;;;;;5093612;28;20114;-63
2021/12/02 01:18:20;;;;;;;1.90;0.93;;;10.30;80.20;;;;;;5094187;28;20031;-63
2021/12/02 01:20:49;;;;;;;0.60;0.60;;;10.40;80.10;;;;;;5093546;28;20486;-63
2021/12/02 01:23:16;;;;;;;1.08;0.60;;;10.30;80.00;;;;;;5094414;28;20027;-63
2021/12/02 01:25:44;;;;;;;0.57;0.50;;;10.40;79.70;;;;;;5093572;28;20020;-63
2021/12/02 01:28:10;;;;;;;1.25;0.70;;;10.30;80.00;;;;;;5082176;28;20021;-62
2021/12/02 01:30:36;;;;;;;0.70;0.70;;;10.30;80.00;;;;;;5074105;28;20392;-62
2021/12/02 01:33:05;;;;;;;1.63;1.05;;;10.30;80.10;;;;;;5073697;28;20039;-62
2021/12/02 01:35:33;;;;;;;0.50;0.50;;;10.40;80.00;;;;;;5073913;28;20039;-63
2021/12/02 01:37:59;;;;;;;1.58;0.63;;;10.40;79.90;;;;;;5073042;28;20103;-62
2021/12/02 01:40:26;;;;;;;0.50;0.50;;;10.40;79.30;;;;;;5073818;28;20025;-62
2021/12/02 01:42:55;;;;;;;2.38;0.65;;;10.40;79.40;;;;;;5073004;28;20042;-62
2021/12/02 01:45:26;;;;;;;1.40;0.80;;;10.40;79.50;;;;;;5076064;28;20056;-62
2021/12/02 01:47:54;;;;;;;2.20;0.73;;;10.40;79.40;;;;;;5073101;28;20386;-62
2021/12/02 01:50:23;;;;;;;2.80;0.85;;;10.40;79.40;;;;;;5073391;28;20111;-62
2021/12/02 01:53:00;;;;;;;1.17;1.00;;;10.40;79.40;;;;;;5072922;28;20020;-62
2021/12/02 01:55:28;;;;;;;1.00;0.90;;;10.40;79.10;;;;;;5073260;28;20064;-62
2021/12/02 01:58:02;;;;;;;0.77;0.50;;;10.30;79.10;;;;;;5072647;28;20484;-62
2021/12/02 02:00:44;;;;;;;0.70;0.65;;;10.30;79.00;;;;;;5073313;28;20021;-63
2021/12/02 02:03:11;;;;;;;0.70;0.50;;;10.30;78.80;;;;;;5073558;28;20020;-63
2021/12/02 02:05:37;;;;;;;1.02;0.70;;;10.30;78.20;;;;;;5073444;28;20031;-63
2021/12/02 02:08:05;;;;;;;0.60;0.60;;;10.30;77.70;;;;;;5072716;28;20021;-63
2021/12/02 02:10:36;;;;;;;1.45;0.70;;;10.30;77.60;;;;;;5073121;28;20032;-64
2021/12/02 02:13:07;;;;;;;0.77;0.77;;;10.30;77.50;;;;;;5072291;28;20469;-63
2021/12/02 02:15:34;;;;;;;0.50;0.50;;;10.30;77.30;;;;;;5073125;28;20036;-63
2021/12/02 02:18:21;;;;;;;0.70;0.60;;;10.30;76.70;;;;;;5072342;28;20025;-63
2021/12/02 02:21:01;;;;;;;0.40;0.40;;;10.30;76.30;;;;;;5072371;28;20025;-62
2021/12/02 02:23:30;;;;;;;0.57;0.57;;;10.30;76.40;;;;;;5072944;28;20058;-63
2021/12/02 02:25:57;;;;;;;0.77;0.50;;;10.40;76.20;;;;;;5072269;28;20480;-63
2021/12/02 02:28:23;;;;;;;1.90;0.50;;;10.40;76.10;;;;;;5072640;28;20389;-63
2021/12/02 02:30:48;;;;;;;0.50;0.50;;;10.30;76.00;;;;;;5080931;28;20026;-63
2021/12/02 02:33:16;;;;;;;0.57;0.50;;;10.30;76.10;;;;;;5093117;28;20115;-62
2021/12/02 02:35:43;;;;;;;0.52;0.38;;;10.30;76.10;;;;;;5092608;28;20124;-63
2021/12/02 02:38:10;;;;;;;0.98;0.60;;;10.30;76.00;;;;;;5091728;28;20350;-63
2021/12/02 02:40:39;;;;;;;1.05;0.70;;;10.30;76.00;;;;;;5092834;28;20066;-63
2021/12/02 02:43:08;;;;;;;0.50;0.50;;;10.30;76.10;;;;;;5092269;28;20024;-64
2021/12/02 02:45:35;;;;;;;0.70;0.70;;;10.30;76.20;;;;;;5092649;28;20067;-64
2021/12/02 02:48:01;;;;;;;2.65;0.60;;;10.30;76.40;;;;;;5090802;28;20468;-64
2021/12/02 02:50:29;;;;;;;0.50;0.50;;;10.20;77.10;;;;;;5089487;28;20029;-63
2021/12/02 02:53:21;;;;;;;1.17;0.60;;;10.20;76.50;;;;;;5076344;28;20097;-63
2021/12/02 03:08:56;;;;;;;0.70;0.68;;;10.30;76.80;;;;;;5071067;28;20025;-64
2021/12/02 03:11:23;;;;;;;1.45;0.93;;;10.30;76.70;;;;;;5090851;28;20023;-64
2021/12/02 03:13:53;;;;;;;1.05;0.80;;;10.30;76.70;;;;;;5091496;28;20102;-64
2021/12/02 03:19:04;;;;;;;1.38;0.57;;;10.20;76.70;;;;;;5091471;28;20225;-64
2021/12/02 03:21:30;;;;;;;0.93;0.60;;;10.30;76.50;;;;;;5092005;28;20024;-64
2021/12/02 03:24:00;;;;;;;0.80;0.60;;;10.20;76.50;;;;;;5091372;28;20063;-63
2021/12/02 03:26:27;;;;;;;0.68;0.68;;;10.20;76.70;;;;;;5084273;28;20026;-63
2021/12/02 03:28:54;;;;;;;0.85;0.60;;;10.20;76.80;;;;;;5091087;28;20052;-63
2021/12/02 03:31:20;;;;;;;0.85;0.70;;;10.20;76.60;;;;;;5088296;28;20099;-63
2021/12/02 03:33:46;;;;;;;0.50;0.47;;;10.20;76.80;;;;;;5071175;28;20468;-64
2021/12/02 03:36:14;;;;;;;0.88;0.70;;;10.20;76.90;;;;;;5074051;28;20104;-64
2021/12/02 03:38:40;;;;;;;0.73;0.65;;;10.20;76.90;;;;;;5071831;28;20032;-63
2021/12/02 03:41:06;;;;;;;0.93;0.63;;;10.20;77.10;;;;;;5079733;28;20393;-63
2021/12/02 03:43:35;;;;;;;0.50;0.50;;;10.10;77.20;;;;;;5084356;28;20028;-63
2021/12/02 03:46:01;;;;;;;0.50;0.50;;;10.10;76.90;;;;;;5091471;28;20127;-63
2021/12/02 03:48:27;;;;;;;1.63;0.60;;;10.10;76.80;;;;;;5091614;28;20447;-64
2021/12/02 03:50:53;;;;;;;0.35;0.35;;;10.10;76.20;;;;;;5091465;28;20024;-64
2021/12/02 03:53:18;;;;;;;0.60;0.60;;;10.20;75.90;;;;;;5091428;28;20085;-64
2021/12/02 03:56:06;;;;;;;0.55;0.55;;;10.10;76.00;;;;;;5091544;28;20047;-63
2021/12/02 03:58:32;;;;;;;0.70;0.40;;;10.10;75.90;;;;;;5090852;28;20363;-62
2021/12/02 04:00:58;;;;;;;0.50;0.50;;;10.10;75.60;;;;;;5091353;28;20512;-63
2021/12/02 04:03:24;;;;;;;1.20;0.60;;;10.20;75.20;;;;;;5091548;28;20051;-62
2021/12/02 04:05:50;;;;;;;0.82;0.60;;;10.20;75.00;;;;;;5091134;28;20361;-63
2021/12/02 04:08:16;;;;;;;2.20;0.63;;;10.20;74.70;;;;;;5091476;28;20115;-62
2021/12/02 04:10:43;;;;;;;0.55;0.50;;;10.20;74.20;;;;;;5091617;28;20040;-63
2021/12/02 04:15:41;;;;;;;1.67;0.52;;;10.10;74.50;;;;;;5091437;28;20032;-63
2021/12/02 04:18:10;;;;;;;0.60;0.60;;;10.10;74.70;;;;;;5080465;28;20282;-63
2021/12/02 04:20:37;;;;;;;4.13;0.70;;;10.10;74.50;;;;;;5071579;28;20067;-62
2021/12/02 04:23:03;;;;;;;3.13;0.70;;;10.10;74.40;;;;;;5070841;28;20025;-62
2021/12/02 04:25:29;;;;;;;0.68;0.68;;;10.10;74.50;;;;;;5071616;28;20028;-64
2021/12/02 04:27:55;;;;;;;0.90;0.60;;;10.10;74.60;;;;;;5070753;28;20098;-63
2021/12/02 04:30:23;;;;;;;1.13;0.60;;;10.10;74.60;;;;;;5071649;28;20083;-63
2021/12/02 04:32:50;;;;;;;0.70;0.57;;;10.10;74.40;;;;;;5070264;28;20031;-63
2021/12/02 04:35:17;;;;;;;1.63;0.60;;;10.10;74.50;;;;;;5071325;28;20044;-63
2021/12/02 04:37:44;;;;;;;0.85;0.65;;;10.10;75.00;;;;;;5070927;28;20033;-63
2021/12/02 04:40:11;;;;;;;1.27;0.60;;;10.10;74.40;;;;;;5070145;28;20028;-63
2021/12/02 04:42:38;;;;;;;0.90;0.65;;;10.10;74.20;;;;;;5072595;28;20074;-63
2021/12/02 04:45:04;;;;;;;0.88;0.60;;;10.00;73.90;;;;;;5073608;28;20050;-63
2021/12/02 04:47:30;;;;;;;1.63;0.60;;;10.00;73.50;;;;;;5074034;28;20051;-62
2021/12/02 04:49:56;;;;;;;0.50;0.47;;;10.10;73.40;;;;;;5073513;28;20454;-63
2021/12/02 04:52:21;;;;;;;0.70;0.65;;;10.10;73.20;;;;;;5074323;28;20032;-62
2021/12/02 04:54:47;;;;;;;1.02;0.70;;;10.00;73.10;;;;;;5074086;28;20090;-63
2021/12/02 04:57:13;;;;;;;1.92;0.77;;;10.00;73.20;;;;;;5073946;28;20063;-64
2021/12/02 04:59:38;;;;;;;0.60;0.50;;;10.00;73.80;;;;;;5075818;28;20032;-64
2021/12/02 05:02:04;;;;;;;0.70;0.50;;;10.00;72.60;;;;;;5094817;28;20024;-64
2021/12/02 05:04:30;;;;;;;0.60;0.60;;;10.00;72.50;;;;;;5094865;28;20028;-64
2021/12/02 05:06:55;;;;;;;1.00;0.60;;;10.00;72.60;;;;;;5093882;28;20028;-63
2021/12/02 05:09:21;;;;;;;0.98;0.60;;;10.00;72.50;;;;;;5094619;28;20123;-64
2021/12/02 05:11:47;;;;;;;1.58;0.80;;;10.00;72.30;;;;;;5094287;28;20099;-63
2021/12/02 05:14:13;;;;;;;0.65;0.50;;;10.00;72.20;;;;;;5089286;28;20027;-63
2021/12/02 05:16:40;;;;;;;1.40;0.70;;;10.00;72.00;;;;;;5094306;28;20055;-63
2021/12/02 05:19:06;;;;;;;1.55;0.63;;;10.00;72.20;;;;;;5093585;28;20436;-63
2021/12/02 05:21:32;;;;;;;0.80;0.70;;;10.00;72.20;;;;;;5094329;28;20035;-63
2021/12/02 05:23:57;;;;;;;2.28;0.80;;;10.00;72.10;;;;;;5093459;28;20388;-63
2021/12/02 05:26:25;;;;;;;3.30;0.80;;;10.00;72.20;;;;;;5092471;28;20461;-63
2021/12/02 05:28:52;;;;;;;2.72;0.70;;;9.90;72.00;;;;;;5074715;28;20031;-63
2021/12/02 05:31:18;;;;;;;1.17;0.70;;;10.00;72.00;;;;;;5083314;28;20024;-63
2021/12/02 05:33:43;;;;;;;3.65;0.70;;;10.00;72.00;;;;;;5090546;28;20031;-63
2021/12/02 05:36:09;;;;;;;1.38;0.52;;;10.00;71.60;;;;;;5093312;28;20024;-63
2021/12/02 05:38:35;;;;;;;1.65;0.90;;;10.00;71.30;;;;;;5094238;28;20020;-63
2021/12/02 05:41:02;;;;;;;2.22;1.02;;;10.00;71.50;;;;;;5093323;28;20073;-63
2021/12/02 05:43:28;;;;;;;1.80;0.93;;;10.00;71.70;;;;;;5093708;28;20101;-63
2021/12/02 05:45:54;;;;;;;1.40;0.60;;;9.90;72.00;;;;;;5093068;28;20472;-63
2021/12/02 05:48:20;;;;;;;1.42;0.77;;;9.90;71.80;;;;;;5084099;28;20032;-63
2021/12/02 05:50:46;;;;;;;1.67;0.88;;;9.90;71.80;;;;;;5073239;28;20028;-63
2021/12/02 05:53:11;;;;;;;0.60;0.52;;;10.00;71.90;;;;;;5072067;28;20115;-63
2021/12/02 05:55:37;;;;;;;2.15;0.77;;;9.90;72.10;;;;;;5073050;28;20472;-63
2021/12/02 05:58:03;;;;;;;1.67;0.82;;;10.00;72.20;;;;;;5072749;28;20423;-63
2021/12/02 06:00:29;;;;;;;0.70;0.70;;;9.90;72.30;;;;;;5073359;28;20024;-63
2021/12/02 06:02:54;;;;;;;1.17;0.80;;;9.90;72.60;;;;;;5085005;28;20035;-64
2021/12/02 06:05:20;;;;;;;1.42;1.00;;;9.90;72.50;;;;;;5093362;28;20040;-63
2021/12/02 06:07:51;;;;;;;2.92;0.90;;;9.90;72.80;;;;;;5093617;28;20020;-63
2021/12/02 06:10:18;;;;;;;;;;;9.90;72.90;;;;;;5092774;28;20391;-62
2021/12/02 06:12:44;;;;;;;1.30;0.75;;;9.90;73.20;;;;;;5093051;28;20003;-63
2021/12/02 06:15:11;;;;;;;2.67;0.90;;;9.90;73.40;;;;;;5091325;28;20185;-63
2021/12/02 06:17:38;;;;;;;1.27;0.98;;;9.90;73.50;;;;;;5093069;28;20055;-63
2021/12/02 06:20:05;;;;;;;4.22;0.80;;;9.90;73.50;;;;;;5092505;28;20020;-64
2021/12/02 06:22:32;;;;;;;1.50;1.00;;;9.90;73.40;;;;;;5092754;28;20035;-63
2021/12/02 06:27:42;;;;;;;1.10;0.63;;;9.80;73.70;;;;;;5093100;28;20110;-63
2021/12/02 06:30:09;;;;;;;1.45;0.90;;;9.80;73.70;;;;;;5092239;28;20055;-63
2021/12/02 06:32:35;;;;;;;1.27;0.93;;;9.80;73.70;;;;;;5092885;28;20486;-63
2021/12/02 06:35:01;;;;;;;0.98;0.63;;;9.80;73.80;;;;;;5092227;28;20035;-63
2021/12/02 06:37:27;;;;;;;1.30;0.80;;;9.80;73.90;;;;;;5092631;28;20028;-63
2021/12/02 06:39:52;;;;;;;5.28;1.02;;;9.80;74.10;;;;;;5091459;28;20079;-62
2021/12/02 06:42:18;;;;;;;4.82;2.65;;;9.80;74.20;;;;;;5090951;28;20024;-63
2021/12/02 06:44:44;;;;;;;1.55;0.88;;;9.80;74.30;;;;;;5092449;28;20032;-63
2021/12/02 06:47:10;;;;;;;2.63;0.90;;;9.80;74.50;;;;;;5092064;28;20023;-64
2021/12/02 06:49:38;;;;;;;1.02;0.70;;;9.80;74.50;;;;;;5092717;28;20020;-63
2021/12/02 06:52:09;;;;;;;6.35;0.80;;;9.80;74.50;;;;;;5092108;28;20062;-63
2021/12/02 06:54:35;;;;;;;3.75;0.88;;;9.80;74.50;;;;;;5092512;28;20043;-63
2021/12/02 06:57:00;;;;;;;1.50;0.70;;;9.80;74.80;;;;;;5092077;28;20115;-63
2021/12/02 06:59:26;;;;;;;0.85;0.75;;;9.80;74.80;;;;;;5092931;28;20024;-63
2021/12/02 07:01:52;;;;;;;0.60;0.60;;;9.80;75.00;;;;;;5092613;28;20509;-63
2021/12/02 07:04:17;;;;;;;3.83;0.80;;;9.80;75.00;;;;;;5091740;28;20338;-64
2021/12/02 07:06:44;;;;;;;1.17;0.90;;;9.80;75.10;;;;;;5092136;28;20043;-62
2021/12/02 07:09:10;;;;;;;1.27;0.90;;;9.80;75.40;;;;;;5091760;28;20021;-63
2021/12/02 07:11:36;;;;;;;1.80;0.98;;;9.80;75.30;;;;;;5092357;28;20028;-63
2021/12/02 07:14:07;;;;;;;1.67;0.85;;;9.80;75.40;;;;;;5091608;28;20054;-64
2021/12/02 07:16:33;;;;;;;1.20;0.80;;;9.80;75.80;;;;;;5092498;28;20081;-63
2021/12/02 07:19:07;;;;;;;3.50;0.93;;;9.80;75.90;;;;;;5091682;28;20031;-63
2021/12/02 07:21:39;;;;;;;1.20;0.60;;;9.80;76.10;;;;;;5092289;28;20022;-63
2021/12/02 07:24:07;;;;;;;2.50;0.90;;;9.80;76.30;;;;;;5079567;28;20476;-63
2021/12/02 07:26:41;;;;;;;1.42;1.05;;;9.80;76.30;;;;;;5071924;28;20116;-63
2021/12/02 07:29:11;;;;;;;2.17;0.98;;;9.80;76.30;;;;;;5071426;28;20060;-62
2021/12/02 07:31:39;;;;;;;3.80;1.40;;;9.80;76.40;;;;;;5072258;28;20028;-63
2021/12/02 07:34:04;;;;;;;3.33;1.40;;;9.80;76.50;;;;;;5071464;28;20116;-63
2021/12/02 07:36:32;;;;;;;2.47;1.30;;;9.80;76.50;;;;;;5071801;28;20111;-63
2021/12/02 07:39:00;;;;;;;1.77;1.42;;;9.80;76.50;;;;;;5071844;28;20473;-63
2021/12/02 07:41:26;;;;;;;3.10;1.50;;;9.80;76.90;;;;;;5085311;28;20111;-63
2021/12/02 07:43:52;;;;;;;3.17;1.95;;;9.80;76.50;;;;;;5092091;28;20032;-63
2021/12/02 07:46:18;;;;;;;4.38;2.28;;;9.90;76.10;;;;;;5091370;28;20519;-63
2021/12/02 07:48:43;;;;;;;3.25;1.30;;;9.90;76.00;;;;;;5092280;28;20028;-63
2021/12/02 07:51:12;;;;;;;5.22;1.20;;;9.90;75.80;;;;;;5091662;28;20069;-63
2021/12/02 07:53:42;;;;;;;3.63;1.27;;;9.90;75.50;;;;;;5091876;28;20032;-63
2021/12/02 07:56:10;;;;;;;4.72;1.15;;;9.90;75.60;;;;;;5091338;28;20028;-63
2021/12/02 07:58:40;;;;;;;4.20;1.40;;;9.90;75.80;;;;;;5091907;28;20046;-64
2021/12/02 08:01:07;;;;;;;3.03;1.10;;;9.90;75.80;;;;;;5091186;28;20050;-63
2021/12/02 08:03:32;;;;;;;2.67;1.60;;;9.90;76.00;;;;;;5091531;28;20036;-62
2021/12/02 08:05:58;;;;;;;5.10;1.45;;;9.90;76.00;;;;;;5091846;28;20024;-63
2021/12/02 08:08:24;;;;;;;2.88;1.10;;;9.90;75.80;;;;;;5091324;28;20461;-63
2021/12/02 08:10:50;;;;;;;2.28;1.10;;;9.90;75.60;;;;;;5091679;28;20020;-63
2021/12/02 08:13:15;;;;;;;3.72;1.70;;;9.90;75.50;;;;;;5091131;28;20028;-63
2021/12/02 08:15:43;;;;;;;1.23;0.85;;;9.90;75.60;;;;;;5091724;28;20028;-62
2021/12/02 08:18:10;;;;;;;4.00;1.00;;;9.90;75.50;;;;;;5094002;28;20472;-63
2021/12/02 08:20:37;;;;;;;2.08;1.00;;;9.90;75.30;;;;;;5095368;28;20024;-64
2021/12/02 08:23:03;;;;;;;4.43;1.20;;;9.90;75.30;;;;;;5095319;28;20484;-63
2021/12/02 08:25:31;;;;;;;5.50;1.50;;;9.90;75.30;;;;;;5095526;28;20028;-63
2021/12/02 08:28:01;;;;;;;3.03;1.50;;;9.90;75.50;;;;;;5095521;28;20054;-63
2021/12/02 08:30:28;;;;;;;3.95;1.30;;;9.90;75.30;;;;;;5094868;28;20024;-63
2021/12/02 08:32:55;;;;;;;1.20;0.90;;;9.90;75.30;;;;;;5095125;28;20362;-63
2021/12/02 08:35:39;;;;;;;3.85;1.38;;;9.90;75.30;;;;;;5094621;28;20082;-63
2021/12/02 08:38:11;;;;;;;3.03;1.55;;;9.90;75.10;;;;;;5095057;28;20072;-63
2021/12/02 08:40:39;;;;;;;3.25;1.23;;;9.90;75.00;;;;;;5094232;28;20460;-62
2021/12/02 08:43:07;;;;;;;2.30;1.30;;;10.00;75.00;;;;;;5095203;28;20020;-63
2021/12/02 08:45:34;;;;;;;1.55;1.10;;;10.00;74.70;;;;;;5095127;28;20067;-63
2021/12/02 08:48:00;;;;;;;3.45;1.40;;;10.00;74.60;;;;;;5095193;28;20028;-63
2021/12/02 08:50:26;;;;;;;4.55;1.50;;;10.00;74.80;;;;;;5094281;28;20272;-64
2021/12/02 08:52:53;;;;;;;3.78;1.50;;;10.00;75.10;;;;;;5095095;28;20522;-63
2021/12/02 08:55:22;;;;;;;3.00;1.50;;;9.90;75.30;;;;;;5094193;28;20031;-63
2021/12/02 08:57:49;;;;;;;2.75;1.20;;;9.90;75.30;;;;;;5094771;28;20107;-63
2021/12/02 09:00:18;;;;;;;3.35;1.15;;;10.00;75.20;;;;;;5094173;28;20035;-63
2021/12/02 09:02:44;;;;;;;1.50;1.15;;;10.00;75.00;;;;;;5094870;28;20050;-62
2021/12/02 09:05:10;;;;;;;2.00;1.13;;;10.00;75.30;;;;;;5094065;28;20024;-63
2021/12/02 09:07:36;;;;;;;4.40;1.40;;;10.00;75.60;;;;;;5094385;28;20050;-63
2021/12/02 09:10:04;;;;;;;5.90;1.10;;;10.00;75.70;;;;;;5094841;28;20028;-62
2021/12/02 09:12:30;;;;;;;3.47;1.80;;;10.00;76.00;;;;;;5093700;28;20093;-62
2021/12/02 09:14:56;;;;;;;2.53;1.50;;;10.00;76.40;;;;;;5094246;28;20058;-62
2021/12/02 09:17:22;;;;;;;2.75;1.33;;;10.00;76.90;;;;;;5093722;28;20044;-62
2021/12/02 09:19:48;;;;;;;1.92;1.00;;;10.00;77.00;;;;;;5094448;28;20039;-62
2021/12/02 09:22:14;;;;;;;3.67;1.63;;;10.00;75.80;;;;;;5093721;28;20465;-62
2021/12/02 09:24:40;;;;;;;1.52;0.82;;;10.10;75.80;;;;;;5094286;28;20067;-63
2021/12/02 09:27:06;;;;;;;1.20;0.70;;;10.00;74.70;;;;;;5090955;28;20020;-62
2021/12/02 09:29:32;;;;;;;1.35;0.77;;;10.00;74.60;;;;;;5093730;28;20059;-63
2021/12/02 09:31:58;;;;;;;1.30;1.15;;;10.00;74.50;;;;;;5094270;28;20056;-63
2021/12/02 09:34:25;;;;;;;2.38;1.25;;;10.00;74.70;;;;;;5091291;28;20348;-63
2021/12/02 09:36:52;;;;;;;2.03;1.20;;;10.00;75.10;;;;;;5074028;28;20060;-63
2021/12/02 09:39:17;;;;;;;2.67;1.23;;;10.00;75.50;;;;;;5073340;28;20078;-63
2021/12/02 09:41:47;;;;;;;4.15;1.60;;;9.90;75.30;;;;;;5074101;28;20024;-62
2021/12/02 09:46:58;;;;;;;2.88;1.55;;;9.90;76.90;;;;;;5073846;28;20106;-63
2021/12/02 09:49:25;;;;;;;2.20;1.40;;;9.90;76.80;;;;;;5073229;28;20024;-62
2021/12/02 09:54:19;;;;;;;3.22;1.50;;;9.90;76.90;;;;;;5073103;28;20040;-63
2021/12/02 09:56:49;;;;;;;1.90;1.45;;;9.90;76.50;;;;;;5073622;28;20036;-63
2021/12/02 10:02:03;;;;;;;1.60;1.30;;;9.80;76.60;;;;;;5073546;28;20024;-62
2021/12/02 10:04:30;;;;;;;3.75;1.38;;;9.80;77.50;;;;;;5072863;28;20111;-62
2021/12/02 10:07:46;;;;;;;2.58;1.35;;;9.70;77.90;;;;;;5073564;28;20077;-62
2021/12/02 10:10:14;;;;;;;1.77;1.25;;;9.70;78.20;;;;;;5071028;28;20078;-63
2021/12/02 10:12:49;;;;;;;4.47;1.27;;;9.70;78.70;;;;;;5073032;28;20381;-62
2021/12/02 10:15:17;;;;;;;1.90;1.45;;;9.70;79.10;;;;;;5071178;28;20400;-62
2021/12/02 10:17:48;;;;;;;2.92;1.30;;;9.70;79.20;;;;;;5073230;28;20044;-62
2021/12/02 10:23:19;;;;;;;3.10;1.13;;;9.60;79.20;;;;;;5073061;28;19904;-62
2021/12/02 10:26:00;;;;;;;1.38;1.10;;;9.60;79.30;;;;;;5073190;28;20060;-63
2021/12/02 10:28:30;;;;;;;1.70;1.30;;;9.60;78.40;;;;;;5072525;28;20116;-62
2021/12/02 10:31:00;;;;;;;1.27;0.85;;;9.60;78.80;;;;;;5072633;28;20027;-62
2021/12/02 10:33:41;;;;;;;2.28;1.30;;;9.60;79.30;;;;;;5072312;28;20040;-62
2021/12/02 10:36:22;;;;;;;4.15;1.27;;;9.50;79.80;;;;;;5072575;28;20029;-62
2021/12/02 10:38:48;;;;;;;2.50;1.33;;;9.50;80.80;;;;;;5072552;28;20541;-61
2021/12/02 10:41:22;;;;;;;1.88;1.40;;;9.50;81.50;;;;;;5072226;28;20115;-62
2021/12/02 10:44:06;;;;;;;1.85;1.45;;;9.40;82.40;;;;;;5072625;28;20064;-63
2021/12/02 10:46:34;;;;;;;2.42;1.20;;;9.40;83.80;;;;;;5072321;28;20076;-63
2021/12/02 10:49:00;;;;;;;2.53;1.23;;;9.40;84.60;;;;;;5072589;28;20025;-62
2021/12/02 10:51:50;;;;;;;1.50;1.10;;;9.30;84.90;;;;;;5072003;28;20033;-62
2021/12/02 10:54:22;;;;;;;2.15;1.63;;;9.30;85.40;;;;;;5072412;28;20028;-63
2021/12/02 10:56:53;;;;;;;3.60;1.48;;;9.30;86.50;;;;;;5072320;28;20098;-63
2021/12/02 10:59:28;;;;;;;3.92;2.03;;;9.30;86.20;;;;;;5071684;28;20024;-63
2021/12/02 11:02:17;;;;;;;1.50;1.23;;;9.20;86.80;;;;;;5072154;28;20028;-63
2021/12/02 11:04:46;;;;;;;2.53;1.65;;;9.30;86.80;;;;;;5072137;28;20036;-63
2021/12/02 11:07:21;;;;;;;2.60;1.60;;;9.20;87.30;;;;;;5072093;28;20464;-63
2021/12/02 11:09:50;;;;;;;3.65;1.60;;;9.20;88.10;;;;;;5072112;28;20028;-62
2021/12/02 11:12:30;;;;;;;4.05;1.65;;;9.20;87.60;;;;;;5072028;28;20028;-62
2021/12/02 11:15:15;;;;;;;2.95;1.38;;;9.20;87.70;;;;;;5072155;28;20036;-62
2021/12/02 11:18:03;;;;;;;3.35;2.22;;;9.20;87.20;;;;;;5071425;28;20027;-63
2021/12/02 11:20:30;;;;;;;2.47;1.40;;;9.20;86.20;;;;;;5071680;28;20528;-62
2021/12/02 11:23:06;;;;;;;2.42;0.93;;;9.20;85.60;;;;;;5072112;28;20035;-63
2021/12/02 11:25:58;;;;;;;1.85;1.23;;;9.20;84.70;;;;;;5071220;28;20496;-62
2021/12/02 11:28:29;;;;;;;2.55;1.20;;;9.20;84.20;;;;;;5071428;28;20029;-62
2021/12/02 11:30:56;;;;;;;2.70;1.30;;;9.20;84.10;;;;;;5074632;28;20104;-62
2021/12/02 11:33:35;;;;;;;2.42;1.20;;;9.20;83.70;;;;;;5070996;28;20492;-63
2021/12/02 11:36:01;;;;;;;1.30;1.10;;;9.20;84.30;;;;;;5071794;28;20037;-62
2021/12/02 11:38:28;;;;;;;3.85;1.10;;;9.20;84.70;;;;;;5070992;28;20039;-62
2021/12/02 11:40:59;;;;;;;1.23;1.10;;;9.10;84.30;;;;;;5074912;28;20529;-63
2021/12/02 11:43:27;;;;;;;2.75;1.40;;;9.10;84.00;;;;;;5091489;28;20028;-63
2021/12/02 11:45:55;;;;;;;2.95;1.42;;;9.10;85.00;;;;;;5091631;28;20123;-63
2021/12/02 11:48:27;;;;;;;2.58;1.20;;;9.10;85.20;;;;;;5091440;28;20562;-63
2021/12/02 11:50:56;;;;;;;4.20;1.40;;;9.10;85.20;;;;;;5092061;28;20020;-63
2021/12/02 11:53:22;;;;;;;2.03;1.45;;;9.10;85.90;;;;;;5093521;28;20161;-63
2021/12/02 11:55:54;;;;;;;4.20;1.70;;;9.20;86.00;;;;;;5095911;28;20032;-62
2021/12/02 11:58:20;;;;;;;2.92;1.90;;;9.20;85.50;;;;;;5096049;28;20150;-63
2021/12/02 12:00:47;;;;;;;2.88;1.38;;;9.20;86.40;;;;;;5095340;28;20107;-63
2021/12/02 12:03:20;;;;;;;2.38;1.23;;;9.20;86.20;;;;;;5095834;28;20100;-62
2021/12/02 12:06:00;;;;;;;2.40;1.20;;;9.20;85.30;;;;;;5095469;28;20034;-63
2021/12/02 12:08:40;;;;;;;5.55;1.50;;;9.20;85.50;;;;;;5095194;28;20023;-63
2021/12/02 12:11:25;;;;;;;4.47;1.10;;;9.10;85.40;;;;;;5095716;28;20028;-63
2021/12/02 12:13:57;;;;;;;3.72;1.50;;;9.10;85.60;;;;;;5095673;28;20032;-63
2021/12/02 12:16:32;;;;;;;4.30;1.42;;;9.10;85.90;;;;;;5095251;28;20369;-63
2021/12/02 12:19:27;;;;;;;4.93;1.58;;;9.00;85.70;;;;;;5095545;28;20109;-63
2021/12/02 12:22:07;;;;;;;8.25;2.03;;;9.00;85.80;;;;;;5095468;28;20190;-63
2021/12/02 12:24:47;;;;;;;3.35;1.67;;;9.00;85.80;;;;;;5094987;28;20034;-63
2021/12/02 12:27:17;;;;;;;3.25;1.38;;;9.00;85.60;;;;;;5095424;28;20024;-63
2021/12/02 12:29:44;;;;;;;2.55;1.20;;;9.00;85.60;;;;;;5094878;28;20185;-63
2021/12/02 12:32:37;;;;;;;4.80;1.30;;;9.00;85.30;;;;;;5095239;28;20353;-63
2021/12/02 12:35:08;;;;;;;3.38;1.92;;;8.90;86.00;;;;;;5095343;28;20032;-63
2021/12/02 12:40:09;;;;;;;3.97;1.40;;;8.90;87.00;;;;;;5095300;28;20374;-64
2021/12/02 12:42:38;;;;;;;5.63;2.08;;;8.90;86.80;;;;;;5094548;28;20035;-63
2021/12/02 12:45:06;;;;;;;3.60;1.83;;;8.90;86.40;;;;;;5095272;28;20077;-63
2021/12/02 12:47:41;;;;;;;3.28;1.40;;;8.90;86.50;;;;;;5093424;28;20058;-64
2021/12/02 12:50:35;;;;;;;3.70;1.50;;;8.90;85.90;;;;;;5093593;28;20391;-63
2021/12/02 12:53:04;;;;;;;1.52;1.30;;;8.90;86.00;;;;;;5093848;28;20092;-63
2021/12/02 12:55:35;;;;;;;2.65;1.40;;;8.90;85.90;;;;;;5093059;28;20067;-63
2021/12/02 12:58:07;;;;;;;4.38;1.40;;;8.90;85.80;;;;;;5093850;28;20032;-63
2021/12/02 13:00:53;;;;;;;3.42;1.70;;;8.90;85.80;;;;;;5093085;28;20028;-63
2021/12/02 13:06:38;;;;;;;3.20;1.45;;;8.90;85.30;;;;;;5093474;28;20027;-63
2021/12/02 13:09:03;;;;;;;3.72;1.35;;;8.90;83.50;;;;;;5090903;28;20115;-63
2021/12/02 13:11:32;;;;;;;2.80;1.67;;;8.90;82.90;;;;;;5092920;28;20028;-63
2021/12/02 13:14:00;;;;;;;3.42;1.70;;;9.00;82.60;;;;;;5093396;28;20082;-63
2021/12/02 13:16:25;;;;;;;2.95;1.48;;;9.00;82.40;;;;;;5093390;28;20039;-64
2021/12/02 13:19:11;;;;;;;2.60;1.23;;;9.00;82.60;;;;;;5092506;28;20020;-63
2021/12/02 13:21:37;;;;;;;2.88;1.40;;;9.00;81.10;;;;;;5092710;28;20036;-63
2021/12/02 13:24:09;;;;;;;5.28;1.38;;;9.00;80.90;;;;;;5089625;28;20172;-63
2021/12/02 13:26:41;;;;;;;5.32;1.55;;;9.00;80.40;;;;;;5092770;28;20106;-63
2021/12/02 13:29:11;;;;;;;1.90;1.40;;;9.00;80.40;;;;;;5093261;28;20070;-64
2021/12/02 13:31:39;;;;;;;3.65;1.50;;;8.90;79.20;;;;;;5092273;28;20024;-62
2021/12/02 13:34:07;;;;;;;4.20;1.70;;;9.00;78.50;;;;;;5092819;28;20062;-63
2021/12/02 13:36:39;;;;;;;5.93;1.60;;;9.00;78.40;;;;;;5092583;28;20036;-63
2021/12/02 13:39:13;;;;;;;5.00;1.35;;;9.00;78.80;;;;;;5093040;28;20069;-63
2021/12/02 13:41:47;;;;;;;3.65;1.20;;;9.00;78.00;;;;;;5092539;28;20034;-63
2021/12/02 13:44:17;;;;;;;2.53;1.27;;;9.00;77.90;;;;;;5092674;28;20031;-63